createdAt,value
2022-12-24T00:01:20.468Z,78.16
2022-12-24T00:03:22.334Z,77.91
2022-12-24T00:05:24.640Z,77.86
2022-12-24T00:07:26.548Z,77.50
2022-12-24T00:09:28.297Z,77.48
2022-12-24T00:11:30.086Z,77.08
2022-12-24T00:13:32.010Z,77.41
2022-12-24T00:15:33.923Z,77.54
2022-12-24T00:17:35.856Z,77.13
2022-12-24T00:19:37.766Z,76.51
2022-12-24T00:21:39.659Z,76.63
2022-12-24T00:23:41.830Z,76.71
2022-12-24T00:25:44.312Z,76.41
2022-12-24T00:27:46.251Z,76.90
2022-12-24T00:29:48.020Z,76.25
2022-12-24T00:31:49.806Z,76.55
2022-12-24T00:33:52.453Z,77.18
2022-12-24T00:35:54.266Z,76.41
2022-12-24T00:37:56.211Z,76.82
2022-12-24T00:39:58.179Z,76.71
2022-12-24T00:42:00.048Z,76.71
2022-12-24T00:44:10.084Z,76.61
2022-12-24T00:46:11.895Z,76.58
2022-12-24T00:48:13.609Z,76.20
2022-12-24T00:50:15.587Z,76.84
2022-12-24T00:52:17.328Z,76.60
2022-12-24T00:54:19.105Z,76.14
2022-12-24T00:56:21.547Z,76.97
2022-12-24T00:58:23.299Z,76.13
2022-12-24T01:00:25.108Z,76.19
2022-12-24T01:02:27.245Z,76.37
2022-12-24T01:04:38.329Z,76.42
2022-12-24T01:06:40.153Z,75.43
2022-12-24T01:08:42.547Z,76.58
2022-12-24T01:10:44.204Z,76.11
2022-12-24T01:12:46.638Z,76.27
2022-12-24T01:14:48.308Z,75.93
2022-12-24T01:16:49.979Z,76.28
2022-12-24T01:18:51.663Z,75.84
2022-12-24T01:21:02.637Z,75.01
2022-12-24T01:23:04.314Z,75.45
2022-12-24T01:25:06.857Z,75.45
2022-12-24T01:27:08.543Z,75.02
2022-12-24T01:29:10.330Z,75.35
2022-12-24T01:31:14.201Z,75.48
2022-12-24T01:33:15.921Z,75.16
2022-12-24T01:35:17.945Z,75.32
2022-12-24T01:37:19.696Z,74.82
2022-12-24T01:39:21.530Z,74.83
2022-12-24T01:41:33.540Z,75.24
2022-12-24T01:43:35.242Z,75.28
2022-12-24T01:45:44.510Z,75.27
2022-12-24T01:47:46.594Z,75.04
2022-12-24T01:49:54.113Z,74.97
2022-12-24T01:52:07.240Z,75.38
2022-12-24T01:54:21.295Z,74.86
2022-12-24T01:56:24.120Z,74.93
2022-12-24T01:58:27.163Z,74.85
2022-12-24T02:00:29.574Z,74.80
2022-12-24T02:02:33.600Z,75.15
2022-12-24T02:04:42.628Z,75.14
2022-12-24T02:06:44.314Z,75.31
2022-12-24T02:08:46.081Z,75.42
2022-12-24T02:10:50.277Z,75.50
2022-12-24T02:12:52.809Z,74.89
2022-12-24T02:14:55.064Z,75.63
2022-12-24T02:17:01.178Z,74.92
2022-12-24T02:19:24.330Z,75.09
2022-12-24T02:21:39.733Z,75.37
2022-12-24T02:23:46.122Z,75.31
2022-12-24T02:25:52.312Z,74.82
2022-12-24T02:28:00.469Z,74.94
2022-12-24T02:30:15.194Z,74.96
2022-12-24T02:32:25.338Z,75.25
2022-12-24T02:34:30.676Z,74.73
2022-12-24T02:36:40.834Z,75.12
2022-12-24T02:38:50.635Z,74.70
2022-12-24T02:41:01.192Z,75.26
2022-12-24T02:43:10.932Z,74.96
2022-12-24T02:45:16.993Z,74.79
2022-12-24T02:47:21.999Z,74.44
2022-12-24T02:49:23.667Z,75.08
2022-12-24T02:51:25.661Z,74.51
2022-12-24T02:53:27.342Z,74.72
2022-12-24T02:55:45.401Z,74.49
2022-12-24T02:58:06.519Z,74.43
2022-12-24T03:00:12.038Z,74.96
2022-12-24T03:02:26.825Z,74.93
2022-12-24T03:04:44.393Z,75.54
2022-12-24T03:06:56.632Z,75.21
2022-12-24T03:09:06.365Z,75.46
2022-12-24T03:11:11.190Z,75.80
2022-12-24T03:13:18.084Z,75.51
2022-12-24T03:15:24.091Z,75.64
2022-12-24T03:17:28.856Z,76.06
2022-12-24T03:19:31.699Z,75.64
2022-12-24T03:21:36.662Z,75.51
2022-12-24T03:23:38.507Z,76.15
2022-12-24T03:25:42.676Z,75.56
2022-12-24T03:27:45.254Z,75.55
2022-12-24T03:29:47.325Z,75.54
2022-12-24T03:31:51.749Z,76.14
2022-12-24T03:33:53.576Z,76.17
2022-12-24T03:35:55.295Z,76.17
2022-12-24T03:37:56.972Z,76.55
2022-12-24T03:39:58.780Z,76.38
2022-12-24T03:42:00.843Z,75.90
2022-12-24T03:44:03.364Z,76.49
2022-12-24T03:46:07.231Z,76.29
2022-12-24T03:48:09.327Z,76.50
2022-12-24T03:50:11.346Z,76.99
2022-12-24T03:52:13.283Z,76.37
2022-12-24T03:54:15.195Z,76.41
2022-12-24T03:56:17.147Z,76.40
2022-12-24T03:58:19.030Z,76.53
2022-12-24T04:00:21.571Z,76.16
2022-12-24T04:02:23.585Z,76.85
2022-12-24T04:04:25.693Z,76.30
2022-12-24T04:06:27.932Z,76.82
2022-12-24T04:08:30.015Z,76.73
2022-12-24T04:10:32.004Z,77.58
2022-12-24T04:12:33.977Z,77.01
2022-12-24T04:14:35.912Z,76.50
2022-12-24T04:16:37.824Z,76.36
2022-12-24T04:18:40.851Z,76.48
2022-12-24T04:20:42.750Z,76.31
2022-12-24T04:22:44.706Z,76.20
2022-12-24T04:24:47.197Z,76.51
2022-12-24T04:26:49.133Z,75.97
2022-12-24T04:28:51.051Z,75.47
2022-12-24T04:30:57.774Z,75.24
2022-12-24T04:32:59.690Z,76.01
2022-12-24T04:35:01.788Z,75.08
2022-12-24T04:37:04.158Z,75.09
2022-12-24T04:39:06.099Z,74.58
2022-12-24T04:41:14.755Z,74.42
2022-12-24T04:43:20.981Z,74.81
2022-12-24T04:45:22.955Z,74.82
2022-12-24T04:47:24.946Z,74.12
2022-12-24T04:49:26.923Z,74.76
2022-12-24T04:51:29.088Z,74.61
2022-12-24T04:53:31.922Z,73.91
2022-12-24T04:55:33.863Z,74.18
2022-12-24T04:57:37.964Z,74.26
2022-12-24T04:59:39.949Z,74.55
2022-12-24T05:01:42.032Z,73.98
2022-12-24T05:03:44.062Z,74.06
2022-12-24T05:05:46.273Z,74.35
2022-12-24T05:07:48.183Z,74.19
2022-12-24T05:09:50.327Z,74.63
2022-12-24T05:11:52.372Z,74.04
2022-12-24T05:13:54.391Z,74.67
2022-12-24T05:15:57.018Z,73.97
2022-12-24T05:17:58.948Z,74.01
2022-12-24T05:20:00.918Z,74.70
2022-12-24T05:22:05.992Z,74.35
2022-12-24T05:24:11.393Z,74.36
2022-12-24T05:26:21.147Z,74.32
2022-12-24T05:28:23.204Z,74.04
2022-12-24T05:30:25.134Z,74.07
2022-12-24T05:32:27.549Z,74.38
2022-12-24T05:34:29.595Z,74.29
2022-12-24T05:36:31.632Z,74.63
2022-12-24T05:38:33.602Z,73.84
2022-12-24T05:40:35.524Z,74.16
2022-12-24T05:42:37.504Z,74.15
2022-12-24T05:44:39.446Z,73.80
2022-12-24T05:46:41.567Z,74.21
2022-12-24T05:48:43.531Z,73.45
2022-12-24T05:50:45.416Z,74.18
2022-12-24T05:52:47.291Z,73.45
2022-12-24T05:54:49.253Z,73.55
2022-12-24T05:56:51.231Z,73.44
2022-12-24T05:58:54.856Z,73.60
2022-12-24T06:00:57.051Z,73.65
2022-12-24T06:02:58.983Z,73.78
2022-12-24T06:05:01.039Z,74.48
2022-12-24T06:07:03.146Z,73.49
2022-12-24T06:09:05.179Z,73.67
2022-12-24T06:11:10.911Z,73.56
2022-12-24T06:13:12.858Z,73.67
2022-12-24T06:15:21.929Z,73.39
2022-12-24T06:17:25.842Z,73.83
2022-12-24T06:19:28.037Z,73.59
2022-12-24T06:21:29.997Z,73.72
2022-12-24T06:23:34.242Z,73.88
2022-12-24T06:25:36.173Z,73.87
2022-12-24T06:27:38.171Z,73.42
2022-12-24T06:29:40.100Z,73.18
2022-12-24T06:31:42.136Z,73.70
2022-12-24T06:33:44.246Z,73.58
2022-12-24T06:35:46.945Z,73.13
2022-12-24T06:37:48.837Z,72.99
2022-12-24T06:39:50.835Z,72.96
2022-12-24T06:41:52.890Z,72.99
2022-12-24T06:43:54.987Z,73.33
2022-12-24T06:45:57.155Z,73.08
2022-12-24T06:47:59.569Z,73.25
2022-12-24T06:50:01.959Z,73.79
2022-12-24T06:52:04.364Z,73.20
2022-12-24T06:54:06.265Z,73.13
2022-12-24T06:56:10.992Z,73.61
2022-12-24T06:58:12.991Z,73.51
2022-12-24T07:00:15.500Z,73.38
2022-12-24T07:02:17.475Z,73.12
2022-12-24T07:04:20.609Z,73.64
2022-12-24T07:06:27.202Z,73.30
2022-12-24T07:08:29.182Z,73.44
2022-12-24T07:10:31.100Z,73.12
2022-12-24T07:12:33.194Z,73.83
2022-12-24T07:14:35.376Z,73.44
2022-12-24T07:16:37.370Z,73.98
2022-12-24T07:18:39.508Z,73.80
2022-12-24T07:20:42.994Z,73.83
2022-12-24T07:22:44.959Z,74.14
2022-12-24T07:24:47.004Z,73.50
2022-12-24T07:26:48.946Z,73.77
2022-12-24T07:28:50.894Z,73.05
2022-12-24T07:30:52.899Z,74.52
2022-12-24T07:32:54.977Z,74.25
2022-12-24T07:34:56.951Z,73.78
2022-12-24T07:36:58.975Z,74.02
2022-12-24T07:39:00.973Z,74.18
2022-12-24T07:41:02.882Z,74.16
2022-12-24T07:43:04.955Z,73.36
2022-12-24T07:45:07.850Z,73.85
2022-12-24T07:47:09.838Z,73.65
2022-12-24T07:49:12.048Z,73.05
2022-12-24T07:51:14.119Z,73.45
2022-12-24T07:53:16.011Z,73.83
2022-12-24T07:55:18.211Z,73.43
2022-12-24T07:57:20.197Z,73.93
2022-12-24T07:59:22.238Z,74.12
2022-12-24T08:01:24.364Z,74.70
2022-12-24T08:03:27.877Z,73.93
2022-12-24T08:05:35.011Z,74.23
2022-12-24T08:07:36.977Z,74.71
2022-12-24T08:09:39.796Z,74.02
2022-12-24T08:11:47.998Z,74.20
2022-12-24T08:13:53.636Z,73.69
2022-12-24T08:15:55.844Z,73.64
2022-12-24T08:17:57.770Z,73.70
2022-12-24T08:19:59.749Z,74.04
2022-12-24T08:22:01.667Z,73.96
2022-12-24T08:24:04.075Z,73.19
2022-12-24T08:26:08.559Z,73.81
2022-12-24T08:28:11.004Z,73.76
2022-12-24T08:30:18.988Z,73.66
2022-12-24T08:32:23.071Z,73.29
2022-12-24T08:34:24.985Z,73.72
2022-12-24T08:36:26.988Z,74.36
2022-12-24T08:38:29.378Z,73.52
2022-12-24T08:40:31.395Z,73.51
2022-12-24T08:42:33.412Z,73.44
2022-12-24T08:44:35.369Z,73.30
2022-12-24T08:46:37.695Z,73.19
2022-12-24T08:48:39.687Z,73.76
2022-12-24T08:50:42.976Z,73.66
2022-12-24T08:52:44.941Z,73.18
2022-12-24T08:54:47.076Z,73.67
2022-12-24T08:56:49.085Z,73.71
2022-12-24T08:58:51.086Z,73.64
2022-12-24T09:00:53.071Z,73.71
2022-12-24T09:02:56.833Z,74.10
2022-12-24T09:04:58.924Z,74.29
2022-12-24T09:07:00.881Z,74.28
2022-12-24T09:09:04.148Z,73.72
2022-12-24T09:11:08.249Z,73.85
2022-12-24T09:13:10.165Z,74.27
2022-12-24T09:15:12.303Z,73.75
2022-12-24T09:17:14.218Z,74.24
2022-12-24T09:19:16.117Z,74.16
2022-12-24T09:21:18.923Z,74.65
2022-12-24T09:23:20.945Z,74.33
2022-12-24T09:25:22.910Z,74.73
2022-12-24T09:27:24.882Z,74.20
2022-12-24T09:29:26.821Z,73.89
2022-12-24T09:31:29.302Z,73.27
2022-12-24T09:33:34.085Z,73.90
2022-12-24T09:35:38.589Z,73.48
2022-12-24T09:37:40.568Z,73.10
2022-12-24T09:39:42.539Z,73.38
2022-12-24T09:41:51.380Z,73.43
2022-12-24T09:44:00.060Z,73.96
2022-12-24T09:46:07.791Z,74.00
2022-12-24T09:48:15.590Z,74.18
2022-12-24T09:50:23.901Z,73.55
2022-12-24T09:52:33.297Z,73.01
2022-12-24T09:54:47.754Z,72.94
2022-12-24T09:56:54.303Z,73.51
2022-12-24T09:59:01.727Z,73.06
2022-12-24T10:01:03.997Z,73.30
2022-12-24T10:03:15.905Z,72.65
2022-12-24T10:05:23.587Z,73.41
2022-12-24T10:07:27.273Z,72.96
2022-12-24T10:09:32.699Z,73.77
2022-12-24T10:11:40.830Z,73.59
2022-12-24T10:13:46.227Z,73.68
2022-12-24T10:15:56.561Z,74.04
2022-12-24T10:18:04.654Z,73.45
2022-12-24T10:20:12.848Z,73.49
2022-12-24T10:22:21.051Z,72.95
2022-12-24T10:24:29.183Z,73.19
2022-12-24T10:26:41.267Z,72.59
2022-12-24T10:28:46.803Z,72.96
2022-12-24T10:30:58.637Z,71.85
2022-12-24T10:33:01.049Z,72.40
2022-12-24T10:35:17.628Z,72.90
2022-12-24T10:37:23.975Z,72.44
2022-12-24T10:39:27.427Z,72.27
2022-12-24T10:41:32.796Z,71.86
2022-12-24T10:43:36.185Z,72.56
2022-12-24T10:45:41.894Z,71.91
2022-12-24T10:47:47.868Z,71.86
2022-12-24T10:50:01.951Z,72.23
2022-12-24T10:52:07.263Z,71.78
2022-12-24T10:54:19.515Z,72.12
2022-12-24T10:56:24.780Z,71.40
2022-12-24T10:58:26.728Z,71.31
2022-12-24T11:00:35.508Z,71.03
2022-12-24T11:02:39.317Z,70.81
2022-12-24T11:04:49.752Z,70.37
2022-12-24T11:06:58.043Z,70.04
2022-12-24T11:09:21.007Z,70.56
2022-12-24T11:11:23.711Z,70.05
2022-12-24T11:13:39.508Z,69.91
2022-12-24T11:15:41.846Z,69.99
2022-12-24T11:17:56.101Z,69.67
2022-12-24T11:19:58.754Z,69.58
2022-12-24T11:22:05.958Z,69.01
2022-12-24T11:24:14.155Z,68.97
2022-12-24T11:26:22.141Z,69.26
2022-12-24T11:28:26.117Z,69.25
2022-12-24T11:30:32.437Z,69.26
2022-12-24T11:32:34.387Z,69.28
2022-12-24T11:34:36.352Z,69.78
2022-12-24T11:36:38.357Z,69.52
2022-12-24T11:38:40.455Z,68.79
2022-12-24T11:40:45.215Z,68.49
2022-12-24T11:42:47.899Z,68.81
2022-12-24T11:44:51.379Z,68.79
2022-12-24T11:46:57.263Z,68.37
2022-12-24T11:49:07.985Z,68.09
2022-12-24T11:51:16.625Z,68.17
2022-12-24T11:53:24.351Z,68.28
2022-12-24T11:55:32.576Z,68.71
2022-12-24T11:57:48.711Z,68.45
2022-12-24T11:59:52.307Z,68.97
2022-12-24T12:01:59.033Z,69.03
2022-12-24T12:04:05.764Z,69.38
2022-12-24T12:06:17.634Z,69.17
2022-12-24T12:08:22.965Z,69.96
2022-12-24T12:10:30.529Z,69.92
2022-12-24T12:12:37.918Z,70.63
2022-12-24T12:14:44.741Z,70.69
2022-12-24T12:16:59.239Z,71.04
2022-12-24T12:19:11.485Z,70.68
2022-12-24T12:21:22.471Z,70.68
2022-12-24T12:23:26.719Z,70.92
2022-12-24T12:25:34.902Z,71.26
2022-12-24T12:27:43.664Z,71.57
2022-12-24T12:29:52.389Z,71.46
2022-12-24T12:32:00.281Z,72.10
2022-12-24T12:34:11.279Z,71.74
2022-12-24T12:36:18.128Z,72.03
2022-12-24T12:38:23.613Z,72.00
2022-12-24T12:40:34.056Z,72.28
2022-12-24T12:42:39.825Z,72.98
2022-12-24T12:44:48.094Z,72.32
2022-12-24T12:46:53.585Z,72.30
2022-12-24T12:49:02.562Z,72.59
2022-12-24T12:51:10.255Z,72.42
2022-12-24T12:53:15.700Z,72.38
2022-12-24T12:55:24.689Z,72.45
2022-12-24T12:57:33.186Z,72.74
2022-12-24T12:59:41.397Z,72.40
2022-12-24T13:01:51.425Z,72.28
2022-12-24T13:04:05.552Z,72.92
2022-12-24T13:06:13.765Z,73.02
2022-12-24T13:08:19.256Z,73.03
2022-12-24T13:10:25.603Z,72.80
2022-12-24T13:12:33.779Z,72.72
2022-12-24T13:14:42.115Z,72.94
2022-12-24T13:17:01.681Z,72.69
2022-12-24T13:19:09.866Z,72.84
2022-12-24T13:21:18.433Z,72.39
2022-12-24T13:23:23.152Z,72.66
2022-12-24T13:25:29.566Z,72.70
2022-12-24T13:27:34.677Z,72.16
2022-12-24T13:29:37.383Z,72.50
2022-12-24T13:31:39.444Z,72.59
2022-12-24T13:33:42.242Z,72.75
2022-12-24T13:35:50.739Z,72.57
2022-12-24T13:37:52.747Z,72.90
2022-12-24T13:40:00.986Z,72.71
2022-12-24T13:42:02.954Z,72.67
2022-12-24T13:44:11.210Z,73.05
2022-12-24T13:46:36.199Z,72.94
2022-12-24T13:48:38.380Z,73.22
2022-12-24T13:50:47.178Z,73.06
2022-12-24T13:52:53.650Z,73.40
2022-12-24T13:54:57.638Z,73.38
2022-12-24T13:57:01.526Z,73.78
2022-12-24T13:59:10.400Z,74.11
2022-12-24T14:01:18.403Z,73.47
2022-12-24T14:03:27.214Z,73.60
2022-12-24T14:05:35.431Z,73.59
2022-12-24T14:07:37.819Z,73.64
2022-12-24T14:09:50.102Z,73.52
2022-12-24T14:11:58.187Z,74.10
2022-12-24T14:14:04.645Z,73.98
2022-12-24T14:16:12.382Z,74.38
2022-12-24T14:18:19.069Z,74.48
2022-12-24T14:20:22.305Z,74.55
2022-12-24T14:22:28.818Z,74.60
2022-12-24T14:24:37.335Z,74.44
2022-12-24T14:26:48.369Z,74.63
2022-12-24T14:28:59.612Z,74.66
2022-12-24T14:31:03.561Z,74.54
2022-12-24T14:33:05.533Z,74.59
2022-12-24T14:35:09.512Z,74.86
2022-12-24T14:37:13.973Z,74.61
2022-12-24T14:39:24.972Z,74.87
2022-12-24T14:41:33.151Z,74.93
2022-12-24T14:43:38.606Z,74.00
2022-12-24T14:45:47.019Z,74.44
2022-12-24T14:47:54.912Z,74.67
2022-12-24T14:50:00.282Z,74.31
2022-12-24T14:52:37.851Z,74.36
2022-12-24T14:54:41.568Z,74.75
2022-12-24T14:56:43.611Z,74.59
2022-12-24T14:58:46.991Z,74.86
2022-12-24T15:00:50.348Z,74.54
2022-12-24T15:02:52.911Z,74.20
2022-12-24T15:05:01.215Z,73.89
2022-12-24T15:07:05.331Z,74.48
2022-12-24T15:09:18.274Z,74.25
2022-12-24T15:11:22.491Z,74.61
2022-12-24T15:13:35.271Z,74.57
2022-12-24T15:15:38.558Z,74.45
2022-12-24T15:17:40.907Z,74.74
2022-12-24T15:19:47.510Z,74.59
2022-12-24T15:21:50.104Z,74.27
2022-12-24T15:23:52.810Z,74.33
2022-12-24T15:26:01.041Z,74.32
2022-12-24T15:28:03.064Z,74.21
2022-12-24T15:30:14.476Z,74.15
2022-12-24T15:32:18.773Z,74.09
2022-12-24T15:34:26.187Z,74.41
2022-12-24T15:36:31.770Z,74.25
2022-12-24T15:38:37.954Z,74.19
2022-12-24T15:40:40.137Z,73.85
2022-12-24T15:42:43.229Z,74.10
2022-12-24T15:44:57.170Z,74.17
2022-12-24T15:47:01.329Z,74.00
2022-12-24T15:49:03.702Z,74.03
2022-12-24T15:51:06.574Z,73.71
2022-12-24T15:53:20.514Z,73.87
2022-12-24T15:55:28.737Z,73.95
2022-12-24T15:57:33.501Z,74.54
2022-12-24T15:59:36.538Z,74.19
2022-12-24T16:01:38.646Z,74.15
2022-12-24T16:03:54.383Z,74.19
2022-12-24T16:06:00.733Z,74.21
2022-12-24T16:08:07.383Z,74.20
2022-12-24T16:10:25.139Z,73.95
2022-12-24T16:12:27.244Z,74.21
2022-12-24T16:14:31.337Z,74.25
2022-12-24T16:16:37.982Z,74.05
2022-12-24T16:18:44.464Z,74.28
2022-12-24T16:20:49.962Z,74.19
2022-12-24T16:22:52.541Z,74.15
2022-12-24T16:24:55.876Z,74.46
2022-12-24T16:26:58.352Z,74.49
2022-12-24T16:29:00.671Z,74.05
2022-12-24T16:31:02.841Z,74.54
2022-12-24T16:33:04.884Z,74.42
2022-12-24T16:35:18.071Z,74.66
2022-12-24T16:37:20.029Z,74.61
2022-12-24T16:39:26.902Z,74.48
2022-12-24T16:41:28.804Z,74.64
2022-12-24T16:43:33.848Z,74.75
2022-12-24T16:45:37.319Z,74.77
2022-12-24T16:47:43.366Z,74.67
2022-12-24T16:49:45.774Z,75.12
2022-12-24T16:51:47.954Z,74.92
2022-12-24T16:53:49.934Z,75.01
2022-12-24T16:55:53.538Z,75.46
2022-12-24T16:57:56.653Z,75.53
2022-12-24T16:59:58.649Z,75.53
2022-12-24T17:02:00.774Z,75.60
2022-12-24T17:04:03.004Z,76.10
2022-12-24T17:06:06.362Z,76.54
2022-12-24T17:08:08.946Z,76.36
2022-12-24T17:10:13.981Z,75.93
2022-12-24T17:12:16.418Z,75.96
2022-12-24T17:14:20.872Z,76.34
2022-12-24T17:16:23.094Z,76.04
2022-12-24T17:18:25.102Z,75.96
2022-12-24T17:20:27.053Z,75.93
2022-12-24T17:22:29.316Z,76.46
2022-12-24T17:24:31.790Z,76.10
2022-12-24T17:26:33.896Z,76.09
2022-12-24T17:28:35.979Z,76.83
2022-12-24T17:30:40.402Z,76.87
2022-12-24T17:32:42.557Z,76.59
2022-12-24T17:34:44.765Z,76.38
2022-12-24T17:36:47.005Z,76.78
2022-12-24T17:38:49.436Z,76.23
2022-12-24T17:40:51.465Z,75.84
2022-12-24T17:42:53.469Z,76.39
2022-12-24T17:44:56.674Z,76.04
2022-12-24T17:46:58.824Z,76.08
2022-12-24T17:49:00.975Z,76.31
2022-12-24T17:51:05.812Z,75.86
2022-12-24T17:53:07.909Z,76.00
2022-12-24T17:55:10.191Z,76.06
2022-12-24T17:57:12.244Z,75.73
2022-12-24T17:59:14.591Z,75.63
2022-12-24T18:01:21.060Z,76.03
2022-12-24T18:03:24.432Z,75.39
2022-12-24T18:05:26.497Z,75.67
2022-12-24T18:07:28.380Z,76.18
2022-12-24T18:09:30.921Z,76.00
2022-12-24T18:11:35.722Z,76.17
2022-12-24T18:13:37.728Z,76.30
2022-12-24T18:15:40.508Z,76.46
2022-12-24T18:17:42.453Z,76.54
2022-12-24T18:19:44.419Z,76.88
2022-12-24T18:21:46.355Z,76.69
2022-12-24T18:23:50.577Z,76.26
2022-12-24T18:25:53.070Z,76.91
2022-12-24T18:27:55.151Z,77.07
2022-12-24T18:29:57.222Z,77.43
2022-12-24T18:31:59.275Z,77.18
2022-12-24T18:34:03.000Z,77.70
2022-12-24T18:36:06.120Z,77.17
2022-12-24T18:38:08.172Z,77.37
2022-12-24T18:40:10.636Z,77.36
2022-12-24T18:42:14.818Z,77.43
2022-12-24T18:44:22.560Z,77.24
2022-12-24T18:46:29.412Z,76.57
2022-12-24T18:48:31.489Z,76.46
2022-12-24T18:50:33.491Z,76.72
2022-12-24T18:52:35.586Z,76.57
2022-12-24T18:54:38.991Z,77.03
2022-12-24T18:56:40.947Z,77.07
2022-12-24T19:01:01.921Z,77.28
2022-12-24T19:03:04.752Z,77.16
2022-12-24T19:05:08.111Z,77.87
2022-12-24T19:07:10.003Z,76.90
2022-12-24T19:09:12.045Z,77.22
2022-12-24T19:11:14.167Z,76.90
2022-12-24T19:13:16.175Z,77.44
2022-12-24T19:15:18.632Z,77.16
2022-12-24T19:17:20.580Z,77.18
2022-12-24T19:19:24.210Z,76.70
2022-12-24T19:21:26.524Z,77.01
2022-12-24T19:23:28.579Z,76.74
2022-12-24T19:25:30.649Z,76.38
2022-12-24T19:27:32.648Z,76.12
2022-12-24T19:29:34.672Z,76.56
2022-12-24T19:31:36.734Z,76.03
2022-12-24T19:33:43.140Z,76.05
2022-12-24T19:35:45.566Z,75.97
2022-12-24T19:37:47.569Z,75.68
2022-12-24T19:39:49.480Z,75.35
2022-12-24T19:41:52.213Z,75.64
2022-12-24T19:43:56.868Z,75.32
2022-12-24T19:45:59.016Z,75.52
2022-12-24T19:48:01.045Z,74.76
2022-12-24T19:50:03.389Z,74.37
2022-12-24T19:52:05.361Z,74.26
2022-12-24T19:54:13.315Z,74.45
2022-12-24T19:56:20.705Z,73.86
2022-12-24T19:58:22.771Z,73.87
2022-12-24T20:00:24.925Z,74.12
2022-12-24T20:02:26.986Z,73.95
2022-12-24T20:04:29.065Z,73.87
2022-12-24T20:06:35.481Z,73.53
2022-12-24T20:08:38.253Z,73.48
2022-12-24T20:10:42.000Z,73.80
2022-12-24T20:12:43.918Z,73.46
2022-12-24T20:14:45.884Z,73.53
2022-12-24T20:16:48.004Z,73.25
2022-12-24T20:18:54.462Z,73.31
2022-12-24T20:21:00.108Z,73.87
2022-12-24T20:23:02.410Z,73.57
2022-12-24T20:25:04.807Z,73.62
2022-12-24T20:27:06.812Z,73.59
2022-12-24T20:29:11.066Z,73.65
2022-12-24T20:31:17.623Z,73.19
2022-12-24T20:33:20.129Z,73.35
2022-12-24T20:35:22.727Z,73.34
2022-12-24T20:37:24.664Z,73.68
2022-12-24T20:39:26.694Z,74.24
2022-12-24T20:41:30.046Z,74.47
2022-12-24T20:43:37.324Z,74.34
2022-12-24T20:45:49.490Z,74.63
2022-12-24T20:47:51.502Z,74.85
2022-12-24T20:49:53.432Z,74.84
2022-12-24T20:51:55.489Z,74.83
2022-12-24T20:53:59.827Z,74.53
2022-12-24T20:56:02.233Z,74.99
2022-12-24T20:58:04.768Z,74.98
2022-12-24T21:00:07.900Z,74.67
2022-12-24T21:02:12.929Z,74.74
2022-12-24T21:04:16.102Z,75.10
2022-12-24T21:06:22.753Z,75.11
2022-12-24T21:08:24.656Z,74.41
2022-12-24T21:10:32.312Z,74.78
2022-12-24T21:12:39.181Z,74.49
2022-12-24T21:14:41.218Z,74.51
2022-12-24T21:16:43.568Z,74.63
2022-12-24T21:18:48.360Z,74.22
2022-12-24T21:20:50.298Z,74.69
2022-12-24T21:22:57.233Z,74.81
2022-12-24T21:25:02.497Z,75.04
2022-12-24T21:27:04.546Z,74.39
2022-12-24T21:29:08.368Z,74.45
2022-12-24T21:31:11.908Z,74.62
2022-12-24T21:33:13.938Z,74.48
2022-12-24T21:35:15.984Z,74.53
2022-12-24T21:37:18.172Z,74.74
2022-12-24T21:39:20.253Z,75.38
2022-12-24T21:41:23.823Z,74.82
2022-12-24T21:43:26.517Z,74.93
2022-12-24T21:45:29.733Z,75.13
2022-12-24T21:47:31.868Z,75.30
2022-12-24T21:49:37.390Z,75.26
2022-12-24T21:51:39.663Z,75.34
2022-12-24T21:53:44.677Z,75.83
2022-12-24T21:55:46.781Z,75.58
2022-12-24T21:57:51.880Z,75.60
2022-12-24T21:59:56.672Z,76.21
2022-12-24T22:01:58.754Z,76.56
2022-12-24T22:04:00.760Z,76.17
2022-12-24T22:06:03.411Z,76.91
2022-12-24T22:08:08.610Z,76.18
2022-12-24T22:10:15.009Z,76.37
2022-12-24T22:12:16.946Z,76.45
2022-12-24T22:14:18.949Z,76.39
2022-12-24T22:16:20.949Z,76.80
2022-12-24T22:18:24.999Z,76.34
2022-12-24T22:20:26.979Z,76.88
2022-12-24T22:22:28.921Z,76.78
2022-12-24T22:24:30.856Z,76.67
2022-12-24T22:26:32.859Z,76.49
2022-12-24T22:28:34.814Z,76.47
2022-12-24T22:30:38.617Z,77.13
2022-12-24T22:32:40.611Z,77.29
2022-12-24T22:34:42.589Z,77.24
2022-12-24T22:36:44.774Z,77.32
2022-12-24T22:38:46.761Z,77.36
2022-12-24T22:40:48.986Z,77.38
2022-12-24T22:42:50.927Z,76.93
2022-12-24T22:44:52.860Z,76.87
2022-12-24T22:46:54.961Z,76.65
2022-12-24T22:48:56.944Z,76.75
2022-12-24T22:50:58.873Z,76.78
2022-12-24T22:53:00.903Z,76.98
2022-12-24T22:55:03.874Z,77.05
2022-12-24T22:57:05.812Z,76.87
2022-12-24T22:59:07.776Z,76.11
2022-12-24T23:01:10.660Z,76.07
2022-12-24T23:03:13.052Z,76.15
2022-12-24T23:05:15.732Z,75.72
2022-12-24T23:07:17.746Z,75.18
2022-12-24T23:09:20.054Z,75.23
2022-12-24T23:11:22.181Z,75.29
2022-12-24T23:13:27.211Z,75.31
2022-12-24T23:15:29.171Z,75.10
2022-12-24T23:17:31.092Z,75.14
2022-12-24T23:19:33.758Z,75.14
2022-12-24T23:21:36.251Z,75.45
2022-12-24T23:23:38.199Z,75.03
2022-12-24T23:25:40.164Z,75.38
2022-12-24T23:27:42.075Z,74.80
2022-12-24T23:29:43.996Z,75.03
2022-12-24T23:31:45.946Z,74.73
2022-12-24T23:33:48.211Z,74.79
2022-12-24T23:35:50.261Z,74.93
2022-12-24T23:37:52.174Z,74.69
2022-12-24T23:39:54.088Z,74.79
2022-12-24T23:41:56.072Z,75.02
2022-12-24T23:43:58.101Z,74.63
2022-12-24T23:46:00.473Z,75.16
2022-12-24T23:48:02.445Z,75.05
2022-12-24T23:50:05.007Z,74.99
2022-12-24T23:52:07.850Z,74.66
2022-12-24T23:54:10.119Z,75.18
2022-12-24T23:56:13.144Z,74.67
2022-12-24T23:58:15.992Z,74.86
